Time;durP1;ratioP1;P1;durP2;ratioP2;P2;SDS_P1;SDS_P2;PMS_P1;PMS_P2;Temp;Humidity;BMP_temperature;BMP_pressure;BME280_temperature;BME280_humidity;BME280_pressure;Samples;Min_cycle;Max_cycle;Signal;HPM_P1;HPM_P2
2023/09/05 00:00:12;;;;;;;0.93;0.73;;;;;;;19.79;48.32;100375.97;4470977;31;32908;-76
2023/09/05 00:02:42;;;;;;;1.25;0.70;;;;;;;19.75;48.58;100371.75;4466845;32;33961;-77
2023/09/05 00:05:14;;;;;;;1.73;1.20;;;;;;;19.50;49.10;100371.81;4473052;32;33524;-78
2023/09/05 00:07:43;;;;;;;0.85;0.70;;;;;;;19.66;48.89;100366.81;4461141;32;33034;-77
2023/09/05 00:10:12;;;;;;;1.23;0.65;;;;;;;19.45;49.38;100366.75;4460948;32;33056;-77
2023/09/05 00:12:43;;;;;;;1.17;0.90;;;;;;;20.10;47.89;100366.78;4459584;32;34999;-77
2023/09/05 00:15:13;;;;;;;2.03;0.90;;;;;;;19.93;48.59;100368.34;4474845;32;34700;-77
2023/09/05 00:17:43;;;;;;;4.47;0.73;;;;;;;19.92;48.53;100364.00;4465260;32;31825;-76
2023/09/05 00:20:15;;;;;;;1.48;0.68;;;;;;;19.97;48.48;100361.19;4474948;32;32994;-76
2023/09/05 00:22:44;;;;;;;2.03;0.80;;;;;;;20.21;48.19;100357.53;4468974;32;33122;-76
2023/09/05 00:25:15;;;;;;;2.35;1.33;;;;;;;20.06;48.04;100352.91;4461786;32;33755;-77
2023/09/05 00:27:44;;;;;;;1.08;0.88;;;;;;;20.08;48.26;100353.72;4467544;32;33743;-77
2023/09/05 00:30:16;;;;;;;7.20;0.80;;;;;;;20.17;48.43;100341.91;4463996;32;31809;-77
2023/09/05 00:32:46;;;;;;;1.40;1.20;;;;;;;20.30;47.67;100343.13;4477901;32;34195;-77
2023/09/05 00:35:17;;;;;;;;;;;;;;;20.10;48.33;100337.81;4466400;32;33685;-76
2023/09/05 00:37:47;;;;;;;1.62;1.00;;;;;;;19.89;48.75;100337.81;4464488;32;33853;-78
2023/09/05 00:40:19;;;;;;;1.48;1.00;;;;;;;19.93;48.83;100336.75;4478094;32;34190;-77
2023/09/05 00:42:47;;;;;;;1.30;0.80;;;;;;;19.65;49.24;100320.38;4477417;32;33905;-77
2023/09/05 00:45:17;;;;;;;1.12;0.90;;;;;;;19.38;50.14;100336.34;4477715;32;35073;-78
2023/09/05 00:47:47;;;;;;;1.35;0.88;;;;;;;19.72;49.56;100329.75;4476335;32;33522;-78
2023/09/05 00:50:19;;;;;;;1.60;0.90;;;;;;;19.55;49.75;100320.72;4477258;31;32024;-78
2023/09/05 00:52:48;;;;;;;6.53;1.20;;;;;;;19.29;50.62;100319.13;4470677;32;33486;-77
2023/09/05 00:55:20;;;;;;;1.17;0.77;;;;;;;19.41;50.32;100323.06;4461967;32;34708;-78
2023/09/05 00:57:49;;;;;;;1.37;0.93;;;;;;;19.78;49.42;100326.84;4475358;32;33582;-78
2023/09/05 01:00:20;;;;;;;1.02;0.88;;;;;;;19.22;50.87;100322.06;4479181;32;33403;-77
2023/09/05 01:02:49;;;;;;;1.30;0.90;;;;;;;19.77;49.57;100323.38;4482526;32;33671;-77
2023/09/05 01:05:20;;;;;;;2.97;1.20;;;;;;;19.37;50.47;100319.66;4468761;32;33754;-77
2023/09/05 01:07:59;;;;;;;1.50;0.93;;;;;;;19.79;49.36;100315.41;4477496;32;34603;-78
2023/09/05 01:10:38;;;;;;;1.98;1.10;;;;;;;19.59;49.93;100305.66;4461969;32;34799;-77
2023/09/05 01:13:06;;;;;;;3.15;1.30;;;;;;;19.85;49.64;100311.66;4466701;32;33810;-77
2023/09/05 01:15:39;;;;;;;0.85;0.77;;;;;;;19.71;49.91;100317.50;4466853;32;33544;-77
2023/09/05 01:18:08;;;;;;;1.35;0.70;;;;;;;19.81;49.53;100310.94;4462085;32;33714;-78
2023/09/05 01:20:45;;;;;;;2.50;1.00;;;;;;;19.96;49.08;100310.31;4462416;32;33863;-78
2023/09/05 01:23:18;;;;;;;1.55;0.85;;;;;;;19.67;50.21;100300.94;4472879;32;33951;-77
2023/09/05 01:25:49;;;;;;;1.92;1.08;;;;;;;19.52;50.37;100304.19;4477036;32;34080;-76
2023/09/05 01:28:23;;;;;;;1.62;1.02;;;;;;;19.56;50.57;100313.69;4459532;32;32990;-78
2023/09/05 01:30:52;;;;;;;1.02;0.90;;;;;;;19.95;48.98;100313.00;4463623;32;33682;-77
2023/09/05 01:33:20;;;;;;;1.17;0.73;;;;;;;19.65;49.98;100315.09;4468360;32;34542;-76
2023/09/05 01:35:49;;;;;;;1.75;0.85;;;;;;;20.01;49.00;100304.84;4463173;32;33879;-78
2023/09/05 01:38:18;;;;;;;0.75;0.73;;;;;;;19.60;50.21;100313.50;4466666;32;32373;-78
2023/09/05 01:40:48;;;;;;;1.30;0.90;;;;;;;19.64;49.92;100318.63;4466127;32;33105;-77
2023/09/05 01:43:18;;;;;;;1.75;0.93;;;;;;;19.30;51.13;100314.72;4462684;32;35927;-78
2023/09/05 01:45:47;;;;;;;2.35;1.17;;;;;;;19.40;51.02;100318.69;4460613;32;34635;-77
2023/09/05 01:48:15;;;;;;;1.55;0.90;;;;;;;19.83;49.76;100320.47;4471345;32;34454;-77
2023/09/05 01:50:44;;;;;;;2.05;0.90;;;;;;;19.82;49.79;100317.91;4466073;32;33159;-77
2023/09/05 01:53:15;;;;;;;1.10;0.70;;;;;;;19.32;51.23;100315.50;4460480;32;34707;-77
2023/09/05 01:55:44;;;;;;;2.95;1.20;;;;;;;19.83;49.84;100315.19;4465521;32;34522;-77
2023/09/05 01:58:14;;;;;;;1.00;0.77;;;;;;;19.18;51.68;100313.41;4461059;32;33973;-77
2023/09/05 02:00:43;;;;;;;2.37;1.30;;;;;;;18.83;52.56;100301.63;4467191;32;32762;-76
2023/09/05 02:03:12;;;;;;;1.67;0.95;;;;;;;18.91;52.54;100304.81;4460944;32;33566;-77
2023/09/05 02:05:41;;;;;;;1.15;0.88;;;;;;;19.09;51.90;100293.59;4462034;32;33826;-77
2023/09/05 02:08:11;;;;;;;1.77;1.10;;;;;;;19.14;51.46;100289.03;4461369;32;34621;-77
2023/09/05 02:10:40;;;;;;;1.00;0.62;;;;;;;19.43;50.48;100294.06;4473601;32;33062;-78
2023/09/05 02:13:09;;;;;;;0.93;0.77;;;;;;;19.58;50.16;100296.06;4467839;32;34414;-77
2023/09/05 02:15:39;;;;;;;4.57;1.00;;;;;;;18.96;51.78;100294.97;4459811;32;34277;-78
2023/09/05 02:18:11;;;;;;;1.05;0.80;;;;;;;19.53;50.47;100300.66;4466129;32;33397;-78
2023/09/05 02:20:42;;;;;;;0.85;0.70;;;;;;;19.72;50.05;100295.53;4475416;32;31371;-78
2023/09/05 02:23:11;;;;;;;1.73;1.10;;;;;;;19.39;50.42;100301.19;4464496;32;34570;-77
2023/09/05 02:25:40;;;;;;;1.17;0.98;;;;;;;19.23;51.02;100300.94;4460442;32;34519;-76
2023/09/05 02:28:08;;;;;;;1.33;0.80;;;;;;;19.37;50.48;100300.41;4462524;32;34485;-78
2023/09/05 02:30:42;;;;;;;1.48;0.88;;;;;;;19.01;51.66;100302.69;4462179;32;33765;-76
2023/09/05 02:33:11;;;;;;;2.15;1.00;;;;;;;19.47;50.75;100304.38;4475281;32;34118;-78
2023/09/05 02:35:41;;;;;;;2.12;0.73;;;;;;;19.56;50.29;100304.00;4461148;32;33721;-78
2023/09/05 02:38:10;;;;;;;1.90;0.73;;;;;;;19.75;49.77;100304.16;4472449;32;33696;-78
2023/09/05 02:40:43;;;;;;;3.72;1.00;;;;;;;19.17;50.93;100304.66;4473375;32;33742;-78
2023/09/05 02:43:15;;;;;;;1.60;1.08;;;;;;;19.11;51.64;100315.44;4474594;32;33857;-77
2023/09/05 02:45:52;;;;;;;0.95;0.85;;;;;;;19.59;50.18;100311.75;4472787;32;34561;-78
2023/09/05 02:48:21;;;;;;;2.00;1.10;;;;;;;19.58;50.16;100307.44;4474159;32;34490;-77
2023/09/05 02:51:01;;;;;;;2.45;1.33;;;;;;;19.66;50.30;100314.16;4466477;32;34338;-78
2023/09/05 02:53:30;;;;;;;0.73;0.70;;;;;;;18.77;52.47;100318.47;4471526;32;33458;-77
2023/09/05 02:55:59;;;;;;;1.23;0.85;;;;;;;19.24;50.92;100304.44;4477684;32;33976;-78
2023/09/05 02:58:31;;;;;;;1.77;1.00;;;;;;;19.06;51.55;100311.25;4467417;32;34506;-79
2023/09/05 03:01:03;;;;;;;2.20;0.90;;;;;;;18.72;52.55;100302.81;4466829;32;33938;-77
2023/09/05 03:03:33;;;;;;;1.33;0.70;;;;;;;19.29;51.00;100315.66;4468761;32;34531;-78
2023/09/05 03:06:08;;;;;;;1.30;0.82;;;;;;;19.35;50.86;100310.12;4463999;32;34335;-77
2023/09/05 03:08:38;;;;;;;2.25;1.00;;;;;;;19.56;50.33;100316.31;4469222;32;33906;-77
2023/09/05 03:11:07;;;;;;;2.72;0.98;;;;;;;19.22;51.00;100322.06;4472756;32;32375;-78
2023/09/05 03:13:36;;;;;;;1.20;1.10;;;;;;;19.10;51.60;100323.38;4467935;32;33588;-77
2023/09/05 03:16:06;;;;;;;1.77;1.15;;;;;;;19.52;50.26;100315.59;4476284;32;34853;-77
2023/09/05 03:18:35;;;;;;;1.73;1.00;;;;;;;18.97;51.65;100317.75;4465481;32;34264;-77
2023/09/05 03:21:05;;;;;;;0.77;0.77;;;;;;;19.13;51.10;100325.88;4478445;32;33262;-76
2023/09/05 03:23:34;;;;;;;3.40;1.20;;;;;;;19.62;50.12;100327.47;4469624;32;33569;-77
2023/09/05 03:26:03;;;;;;;1.70;1.12;;;;;;;19.38;50.49;100324.03;4478167;31;33797;-78
2023/09/05 03:28:39;;;;;;;2.35;1.40;;;;;;;19.28;50.53;100327.94;4465641;32;33924;-76
2023/09/05 03:31:11;;;;;;;1.00;0.77;;;;;;;19.63;49.68;100325.69;4467536;32;33330;-77
2023/09/05 03:33:40;;;;;;;1.77;1.00;;;;;;;19.64;49.47;100332.63;4466796;32;33046;-76
2023/09/05 03:36:12;;;;;;;2.90;1.00;;;;;;;19.28;50.56;100340.22;4478015;32;34783;-77
2023/09/05 03:38:41;;;;;;;1.37;0.80;;;;;;;18.40;52.79;100346.03;4477173;32;34495;-76
2023/09/05 03:41:10;;;;;;;1.77;0.98;;;;;;;19.69;49.70;100340.38;4478277;32;34039;-77
2023/09/05 03:43:38;;;;;;;2.08;1.10;;;;;;;19.93;48.89;100344.66;4483024;32;34455;-77
2023/09/05 03:46:07;;;;;;;1.77;0.73;;;;;;;19.80;49.60;100351.34;4478475;32;33948;-77
2023/09/05 03:48:37;;;;;;;2.30;1.02;;;;;;;19.76;49.87;100352.37;4478092;32;33964;-77
2023/09/05 03:51:07;;;;;;;1.95;1.05;;;;;;;19.89;49.48;100347.50;4477859;32;34084;-77
2023/09/05 03:53:36;;;;;;;1.45;0.95;;;;;;;20.04;49.03;100349.47;4467516;32;33038;-77
2023/09/05 03:56:06;;;;;;;2.90;1.30;;;;;;;19.55;50.32;100352.31;4463384;32;34147;-77
2023/09/05 03:58:35;;;;;;;1.25;0.95;;;;;;;19.90;49.47;100355.31;4467630;32;33200;-77
2023/09/05 04:01:04;;;;;;;1.83;0.90;;;;;;;20.03;49.50;100353.06;4471874;32;32915;-76
2023/09/05 04:03:35;;;;;;;2.20;1.17;;;;;;;19.74;50.32;100359.47;4464012;32;34563;-77
2023/09/05 04:06:06;;;;;;;1.37;0.77;;;;;;;19.88;49.57;100354.50;4475719;32;33038;-78
2023/09/05 04:08:34;;;;;;;2.03;1.10;;;;;;;19.14;51.54;100362.66;4466900;32;33698;-77
2023/09/05 04:11:03;;;;;;;2.10;1.00;;;;;;;19.53;50.24;100359.41;4459571;32;33234;-78
2023/09/05 04:13:32;;;;;;;1.73;1.08;;;;;;;19.81;49.41;100353.94;4466319;32;33510;-76
2023/09/05 04:16:04;;;;;;;1.60;1.08;;;;;;;19.95;48.74;100363.88;4478193;32;34463;-77
2023/09/05 04:18:34;;;;;;;1.10;1.00;;;;;;;19.39;50.44;100366.97;4466001;32;33507;-78
2023/09/05 04:21:03;;;;;;;1.67;1.05;;;;;;;19.65;49.82;100373.00;4466877;32;33406;-77
2023/09/05 04:23:34;;;;;;;1.50;0.80;;;;;;;19.72;50.46;100374.50;4464601;32;33667;-77
2023/09/05 04:26:03;;;;;;;0.85;0.68;;;;;;;19.53;50.58;100367.28;4473928;32;33724;-77
2023/09/05 04:28:32;;;;;;;0.80;0.62;;;;;;;19.62;50.07;100372.19;4471014;32;34984;-77
2023/09/05 04:31:04;;;;;;;1.30;0.95;;;;;;;19.60;50.79;100370.56;4464102;32;33519;-76
2023/09/05 04:33:37;;;;;;;3.97;1.30;;;;;;;19.83;50.31;100364.38;4475931;32;34324;-76
2023/09/05 04:36:10;;;;;;;2.15;1.45;;;;;;;19.70;50.22;100366.66;4478218;32;34222;-78
2023/09/05 04:38:43;;;;;;;1.37;0.80;;;;;;;19.54;51.00;100369.00;4483019;32;33829;-78
2023/09/05 04:41:12;;;;;;;1.20;0.70;;;;;;;19.66;51.61;100377.34;4472697;32;33028;-78
2023/09/05 04:43:41;;;;;;;0.85;0.75;;;;;;;20.01;50.22;100370.69;4465908;32;33715;-76
2023/09/05 04:46:10;;;;;;;1.80;0.82;;;;;;;19.80;50.89;100380.31;4466637;32;33973;-77
2023/09/05 04:48:39;;;;;;;2.05;0.98;;;;;;;19.23;51.52;100374.59;4471533;32;31915;-76
2023/09/05 04:51:08;;;;;;;1.25;1.08;;;;;;;19.69;50.06;100369.34;4480919;32;34036;-77
2023/09/05 04:53:37;;;;;;;1.73;0.93;;;;;;;19.28;52.44;100377.03;4477630;32;33349;-78
2023/09/05 04:56:07;;;;;;;2.05;1.27;;;;;;;19.77;51.72;100381.28;4469334;32;34561;-76
2023/09/05 04:58:36;;;;;;;1.58;1.10;;;;;;;19.99;50.07;100378.63;4466565;31;34715;-77
2023/09/05 05:01:05;;;;;;;2.05;0.88;;;;;;;19.97;51.95;100387.53;4469116;32;33039;-77
2023/09/05 05:03:34;;;;;;;3.20;1.58;;;;;;;19.94;52.36;100390.28;4463962;32;34495;-77
2023/09/05 05:06:04;;;;;;;1.23;0.82;;;;;;;19.81;52.76;100396.06;4471055;32;33805;-77
2023/09/05 05:08:32;;;;;;;1.20;0.90;;;;;;;20.02;53.08;100388.19;4460641;32;33610;-76
2023/09/05 05:11:05;;;;;;;1.05;0.70;;;;;;;19.81;51.68;100390.78;4467606;31;33929;-78
2023/09/05 05:13:35;;;;;;;1.30;0.70;;;;;;;19.76;52.88;100399.78;4481211;31;33688;-77
2023/09/05 05:16:04;;;;;;;1.20;1.10;;;;;;;19.92;52.49;100392.97;4471987;32;33290;-77
2023/09/05 05:18:33;;;;;;;1.40;1.10;;;;;;;20.00;52.78;100393.50;4476328;31;34558;-77
2023/09/05 05:21:02;;;;;;;2.05;1.00;;;;;;;20.18;51.54;100389.28;4473575;32;33542;-78
2023/09/05 05:23:31;;;;;;;1.73;0.90;;;;;;;19.89;52.47;100398.38;4470061;32;33402;-77
2023/09/05 05:26:00;;;;;;;2.17;1.20;;;;;;;20.23;51.30;100397.00;4470400;32;33506;-78
2023/09/05 05:28:29;;;;;;;1.85;0.93;;;;;;;20.21;51.88;100404.09;4467918;32;33773;-77
2023/09/05 05:30:59;;;;;;;2.33;0.90;;;;;;;20.54;49.51;100393.91;4471025;32;32987;-78
2023/09/05 05:33:28;;;;;;;13.82;1.17;;;;;;;20.77;50.03;100400.84;4471892;32;32887;-78
2023/09/05 05:35:58;;;;;;;1.35;0.95;;;;;;;21.18;48.80;100392.00;4472479;32;33650;-77
2023/09/05 05:38:26;;;;;;;2.62;1.12;;;;;;;20.99;48.46;100395.44;4470110;32;33383;-77
2023/09/05 05:40:57;;;;;;;1.90;0.90;;;;;;;20.62;49.37;100390.97;4459747;32;34190;-77
2023/09/05 05:43:29;;;;;;;3.28;0.82;;;;;;;20.41;49.29;100392.72;4460287;32;33124;-76
2023/09/05 05:45:59;;;;;;;2.08;1.08;;;;;;;20.37;49.92;100399.91;4468706;32;33406;-78
2023/09/05 05:48:28;;;;;;;2.05;0.93;;;;;;;20.83;49.18;100400.56;4460264;32;33356;-77
2023/09/05 05:50:57;;;;;;;1.27;0.93;;;;;;;21.08;49.33;100402.09;4461506;32;33077;-77
2023/09/05 05:53:26;;;;;;;1.73;1.10;;;;;;;21.00;49.27;100404.25;4461159;32;33985;-76
2023/09/05 05:55:55;;;;;;;2.15;0.93;;;;;;;20.96;48.99;100405.31;4470803;32;33624;-77
2023/09/05 05:58:24;;;;;;;2.92;1.00;;;;;;;20.56;49.70;100409.66;4471162;32;33627;-78
2023/09/05 06:00:53;;;;;;;1.92;0.85;;;;;;;21.02;48.70;100399.72;4476304;32;33263;-78
2023/09/05 06:03:24;;;;;;;1.05;0.68;;;;;;;21.10;48.33;100394.97;4475846;32;33839;-78
2023/09/05 06:05:54;;;;;;;1.17;0.85;;;;;;;21.20;49.29;100400.69;4475812;32;33944;-77
2023/09/05 06:08:23;;;;;;;2.92;1.35;;;;;;;21.04;49.37;100397.88;4480746;32;33880;-77
2023/09/05 06:10:53;;;;;;;2.17;1.05;;;;;;;21.40;48.10;100391.88;4476153;32;33877;-78
2023/09/05 06:13:21;;;;;;;0.77;0.73;;;;;;;21.31;46.91;100391.38;4475379;32;33824;-78
2023/09/05 06:15:50;;;;;;;2.33;0.93;;;;;;;21.49;47.28;100394.09;4477691;32;34078;-77
2023/09/05 06:18:19;;;;;;;0.77;0.70;;;;;;;21.34;47.43;100384.22;4482930;32;33662;-77
2023/09/05 06:20:50;;;;;;;1.60;0.90;;;;;;;21.34;47.28;100389.50;4477891;32;33078;-77
2023/09/05 06:23:19;;;;;;;2.12;1.08;;;;;;;21.31;47.11;100388.72;4478015;32;33184;-78
2023/09/05 06:25:47;;;;;;;1.60;0.88;;;;;;;21.34;47.42;100389.50;4477347;32;34877;-78
2023/09/05 06:28:17;;;;;;;1.40;0.80;;;;;;;21.16;47.79;100397.31;4478206;32;34530;-76
2023/09/05 06:30:46;;;;;;;2.78;1.75;;;;;;;21.18;47.28;100397.28;4483061;32;33943;-76
2023/09/05 06:33:15;;;;;;;1.95;1.00;;;;;;;21.34;47.11;100398.28;4476210;32;34649;-78
2023/09/05 06:35:44;;;;;;;2.85;1.10;;;;;;;21.22;46.59;100397.06;4475333;32;34589;-77
2023/09/05 06:38:15;;;;;;;1.33;0.90;;;;;;;20.65;47.53;100399.59;4477845;32;34383;-78
2023/09/05 06:40:44;;;;;;;1.50;0.93;;;;;;;21.02;46.75;100397.97;4477843;32;33903;-78
2023/09/05 06:43:12;;;;;;;1.08;0.88;;;;;;;21.28;46.34;100398.53;4473312;32;33921;-78
2023/09/05 06:45:41;;;;;;;0.95;0.85;;;;;;;21.20;45.99;100396.28;4475968;32;34381;-79
2023/09/05 06:48:10;;;;;;;2.50;1.08;;;;;;;20.91;46.67;100394.94;4477943;32;34006;-77
2023/09/05 06:50:39;;;;;;;5.85;0.80;;;;;;;21.29;46.69;100395.84;4465931;32;32056;-77
2023/09/05 06:53:08;;;;;;;1.15;0.93;;;;;;;21.44;45.89;100404.00;4463207;32;34545;-77
2023/09/05 06:55:38;;;;;;;2.25;1.15;;;;;;;21.17;46.54;100403.47;4461733;32;33517;-77
2023/09/05 06:58:07;;;;;;;1.85;0.68;;;;;;;20.85;47.42;100405.75;4462498;32;33802;-78
2023/09/05 07:00:36;;;;;;;1.25;0.90;;;;;;;20.96;47.31;100400.03;4462320;32;33142;-79
2023/09/05 07:03:05;;;;;;;2.15;0.90;;;;;;;21.13;47.17;100399.25;4470798;32;33468;-77
2023/09/05 07:05:39;;;;;;;2.17;1.10;;;;;;;21.16;46.75;100393.84;4477511;32;33788;-77
2023/09/05 07:08:14;;;;;;;2.33;1.35;;;;;;;20.91;47.84;100397.59;4477768;32;33882;-78
2023/09/05 07:10:45;;;;;;;1.48;0.95;;;;;;;21.16;47.01;100394.69;4476731;32;33249;-77
2023/09/05 07:13:16;;;;;;;2.60;1.10;;;;;;;21.09;46.83;100407.31;4480665;31;33659;-78
2023/09/05 07:15:48;;;;;;;1.40;0.98;;;;;;;21.27;46.97;100402.97;4481837;32;33675;-77
2023/09/05 07:18:16;;;;;;;0.90;0.73;;;;;;;21.68;46.22;100402.84;4477503;32;33963;-77
2023/09/05 07:20:45;;;;;;;1.42;0.80;;;;;;;21.98;46.29;100412.00;4477149;32;33293;-77
2023/09/05 07:23:14;;;;;;;1.12;0.80;;;;;;;21.78;46.20;100412.97;4477320;32;33685;-78
2023/09/05 07:25:44;;;;;;;7.78;1.20;;;;;;;21.20;46.99;100408.62;4481572;32;34541;-78
2023/09/05 07:28:13;;;;;;;1.40;0.73;;;;;;;21.45;46.35;100406.56;4477468;32;33267;-79
2023/09/05 07:30:45;;;;;;;2.22;1.10;;;;;;;21.80;45.52;100411.13;4476907;32;33123;-77
2023/09/05 07:33:14;;;;;;;0.88;0.60;;;;;;;21.88;45.19;100414.25;4476834;32;33609;-76
2023/09/05 07:35:43;;;;;;;2.08;1.10;;;;;;;21.67;45.69;100417.00;4482242;32;34630;-79
2023/09/05 07:38:15;;;;;;;2.53;0.95;;;;;;;21.28;46.33;100407.31;4471993;32;35120;-77
2023/09/05 07:40:45;;;;;;;;;;;;;;;21.41;46.69;100407.66;4461970;32;33017;-77
2023/09/05 07:43:14;;;;;;;2.87;1.05;;;;;;;21.89;45.70;100405.38;4461407;32;34982;-76
2023/09/05 07:45:43;;;;;;;1.80;1.02;;;;;;;21.43;47.05;100408.44;4471685;31;34534;-78
2023/09/05 07:48:12;;;;;;;1.10;0.73;;;;;;;21.62;46.73;100418.97;4482241;32;34906;-78
2023/09/05 07:50:41;;;;;;;1.75;1.10;;;;;;;21.33;46.26;100411.53;4477148;32;34286;-79
2023/09/05 07:53:10;;;;;;;1.67;0.88;;;;;;;21.58;46.45;100422.72;4479323;31;34281;-77
2023/09/05 07:55:39;;;;;;;1.90;1.08;;;;;;;21.42;46.68;100412.00;4477086;32;33508;-78
2023/09/05 07:58:10;;;;;;;2.30;0.95;;;;;;;21.72;46.00;100420.28;4482255;32;33704;-78
2023/09/05 08:00:39;;;;;;;1.48;0.80;;;;;;;21.79;46.01;100425.25;4478408;32;33185;-78
2023/09/05 08:03:08;;;;;;;2.67;1.40;;;;;;;21.97;45.97;100427.00;4477701;32;34558;-78
2023/09/05 08:05:36;;;;;;;1.50;0.82;;;;;;;22.31;45.08;100422.72;4476639;32;34567;-77
2023/09/05 08:08:05;;;;;;;5.10;1.35;;;;;;;22.26;45.22;100430.03;4477165;32;33639;-77
2023/09/05 08:10:37;;;;;;;1.27;0.90;;;;;;;22.28;45.04;100421.09;4481105;32;33874;-77
2023/09/05 08:13:05;;;;;;;;;;;;;;;22.83;44.19;100424.47;4463552;32;32988;-77
2023/09/05 08:15:36;;;;;;;1.12;0.70;;;;;;;22.16;45.08;100424.31;4473616;32;33679;-77
2023/09/05 08:18:05;;;;;;;2.10;0.95;;;;;;;22.66;44.29;100426.19;4471035;32;34533;-77
2023/09/05 08:20:36;;;;;;;1.70;0.90;;;;;;;22.27;44.94;100421.16;4481835;32;32523;-76
2023/09/05 08:23:05;;;;;;;3.10;1.23;;;;;;;22.69;44.17;100425.19;4473166;32;34712;-77
2023/09/05 08:25:34;;;;;;;2.75;1.27;;;;;;;21.93;45.85;100425.44;4461050;32;33848;-77
2023/09/05 08:28:03;;;;;;;2.90;1.27;;;;;;;22.49;44.74;100415.63;4473803;32;33062;-79
2023/09/05 08:30:32;;;;;;;2.25;1.10;;;;;;;22.72;43.79;100406.53;4468089;32;34084;-78
2023/09/05 08:33:03;;;;;;;1.30;0.82;;;;;;;22.67;44.40;100409.41;4473060;32;34533;-77
2023/09/05 08:35:32;;;;;;;4.65;1.17;;;;;;;22.44;44.82;100418.50;4461281;32;33964;-78
2023/09/05 08:38:04;;;;;;;2.20;1.20;;;;;;;23.50;42.35;100406.78;4461571;32;33669;-77
2023/09/05 08:40:33;;;;;;;3.75;1.00;;;;;;;22.63;43.53;100412.28;4461248;32;33102;-77
2023/09/05 08:43:02;;;;;;;1.42;0.85;;;;;;;23.17;42.65;100403.25;4466654;32;33559;-78
2023/09/05 08:45:32;;;;;;;2.42;1.35;;;;;;;23.04;43.31;100409.28;4473150;32;33711;-78
2023/09/05 08:48:02;;;;;;;1.58;0.60;;;;;;;23.01;43.05;100407.66;4475704;32;32416;-77
2023/09/05 08:50:32;;;;;;;1.40;0.90;;;;;;;23.28;41.98;100400.03;4477613;32;32999;-77
2023/09/05 08:53:06;;;;;;;1.45;0.75;;;;;;;23.52;42.69;100396.97;4477365;32;33414;-77
2023/09/05 08:55:35;;;;;;;4.75;1.55;;;;;;;23.37;42.64;100407.47;4481746;32;33610;-77
2023/09/05 08:58:04;;;;;;;2.37;1.20;;;;;;;23.47;41.56;100397.22;4477037;32;33776;-78
2023/09/05 09:00:34;;;;;;;1.02;0.70;;;;;;;23.82;41.12;100405.00;4476875;32;33001;-77
2023/09/05 09:03:05;;;;;;;2.00;0.77;;;;;;;23.58;41.16;100394.84;4468808;32;34518;-76
2023/09/05 09:05:37;;;;;;;2.15;1.95;;;;;;;23.29;42.70;100399.06;4466082;32;34590;-77
2023/09/05 09:08:07;;;;;;;2.83;1.30;;;;;;;23.52;41.88;100392.53;4460883;32;33610;-77
2023/09/05 09:10:35;;;;;;;2.87;1.23;;;;;;;;;;4461371;32;34527;-77
2023/09/05 09:13:18;;;;;;;1.87;1.10;;;;;;;24.13;41.01;100387.34;4461859;32;33249;-77
2023/09/05 09:15:47;;;;;;;2.60;1.05;;;;;;;23.57;41.89;100379.03;4475830;32;33771;-78
2023/09/05 09:18:20;;;;;;;1.65;0.73;;;;;;;23.93;41.46;100368.16;4471505;32;34486;-78
2023/09/05 09:20:50;;;;;;;2.65;1.10;;;;;;;24.29;40.93;100374.88;4460727;32;33926;-77
2023/09/05 09:23:25;;;;;;;1.65;1.08;;;;;;;24.42;40.17;100367.03;4473712;32;33919;-78
2023/09/05 09:25:55;;;;;;;2.80;1.25;;;;;;;24.60;40.19;100368.63;4476857;32;34631;-76
2023/09/05 09:28:28;;;;;;;1.45;0.73;;;;;;;24.65;39.36;100365.69;4473994;32;34054;-78
2023/09/05 09:30:58;;;;;;;1.55;0.90;;;;;;;24.45;40.47;100361.53;4471382;32;33407;-77
2023/09/05 09:33:31;;;;;;;2.00;0.85;;;;;;;24.11;40.67;100366.22;4468973;32;34681;-77
2023/09/05 09:36:07;;;;;;;2.47;1.12;;;;;;;23.85;41.11;100362.44;4468967;32;32853;-77
2023/09/05 09:38:38;;;;;;;0.93;0.68;;;;;;;24.44;40.01;100350.09;4466857;32;33400;-77
2023/09/05 09:41:09;;;;;;;1.30;0.65;;;;;;;24.20;40.06;100360.38;4473243;32;32894;-78
2023/09/05 09:43:38;;;;;;;2.55;1.25;;;;;;;24.69;39.24;100354.81;4481663;32;34393;-77
2023/09/05 09:46:09;;;;;;;1.45;0.77;;;;;;;25.01;38.65;100353.72;4470564;32;34768;-77
2023/09/05 09:48:42;;;;;;;1.98;0.93;;;;;;;24.46;39.70;100353.53;4466099;32;33635;-78
2023/09/05 09:51:12;;;;;;;2.05;0.85;;;;;;;24.33;39.14;100357.88;4459806;32;32698;-77
2023/09/05 09:53:41;;;;;;;2.65;0.60;;;;;;;24.83;38.76;100356.59;4472744;32;32970;-78
2023/09/05 09:56:11;;;;;;;1.70;0.93;;;;;;;24.86;38.56;100355.53;4464813;32;33722;-77
2023/09/05 09:58:41;;;;;;;1.02;0.52;;;;;;;24.43;39.02;100358.16;4460307;32;34479;-77
2023/09/05 10:01:12;;;;;;;1.60;0.80;;;;;;;24.77;38.48;100359.63;4457789;32;33672;-77
2023/09/05 10:03:44;;;;;;;1.12;0.88;;;;;;;24.44;39.40;100351.91;4461184;32;33878;-77
2023/09/05 10:06:15;;;;;;;1.33;0.60;;;;;;;24.67;39.16;100353.19;4464922;32;33738;-78
2023/09/05 10:08:45;;;;;;;1.83;0.70;;;;;;;24.53;39.03;100348.72;4459607;32;34396;-77
2023/09/05 10:11:15;;;;;;;3.40;1.70;;;;;;;24.47;39.19;100347.28;4470811;32;32584;-77
2023/09/05 10:13:45;;;;;;;1.83;0.68;;;;;;;24.62;39.03;100342.88;4464778;32;34569;-78
2023/09/05 10:16:15;;;;;;;3.30;1.00;;;;;;;24.95;39.09;100344.34;4465240;32;34526;-78
2023/09/05 10:18:47;;;;;;;1.37;0.82;;;;;;;25.10;38.99;100346.06;4460298;32;33845;-76
2023/09/05 10:21:19;;;;;;;2.42;1.15;;;;;;;25.23;38.10;100343.50;4458394;32;33082;-77
2023/09/05 10:23:47;;;;;;;;;;;;;;;25.19;38.48;100343.81;4460500;32;33989;-77
2023/09/05 10:26:17;;;;;;;0.70;0.70;;;;;;;25.42;38.31;100331.69;4463443;32;34030;-77
2023/09/05 10:28:45;;;;;;;3.50;1.73;;;;;;;24.98;38.58;100325.56;4479472;32;33141;-78
2023/09/05 10:31:14;;;;;;;1.95;0.88;;;;;;;25.52;37.46;100332.81;4466823;32;34122;-78
2023/09/05 10:33:45;;;;;;;2.33;0.80;;;;;;;25.17;37.95;100320.00;4466999;32;33667;-77
2023/09/05 10:36:41;;;;;;;0.65;0.50;;;;;;;25.61;37.70;100326.03;4459627;32;34629;-78
2023/09/05 10:39:24;;;;;;;2.17;0.68;;;;;;;25.62;37.77;100320.62;4459593;32;32353;-78
2023/09/05 10:41:53;;;;;;;0.82;0.70;;;;;;;25.86;37.84;100320.84;4464870;32;33142;-77
2023/09/05 10:44:23;;;;;;;1.15;0.80;;;;;;;25.73;37.37;100307.47;4467227;32;33681;-78
2023/09/05 10:46:53;;;;;;;1.67;1.15;;;;;;;25.85;37.85;100311.09;4468737;32;34612;-77
2023/09/05 10:49:23;;;;;;;0.88;0.75;;;;;;;25.84;37.47;100313.88;4466128;32;33751;-78
2023/09/05 10:52:18;;;;;;;1.60;0.73;;;;;;;26.62;36.87;100308.56;4475605;32;34222;-78
2023/09/05 10:54:47;;;;;;;1.05;0.77;;;;;;;26.70;36.79;100305.34;4480708;32;33579;-78
2023/09/05 10:57:38;;;;;;;1.67;0.75;;;;;;;26.47;35.33;100306.97;4467431;32;34416;-78
2023/09/05 11:00:29;;;;;;;0.98;0.75;;;;;;;26.49;35.89;100308.56;4460297;32;33679;-77
2023/09/05 11:03:09;;;;;;;0.70;0.50;;;;;;;26.42;36.60;100304.63;4462912;32;33221;-78
2023/09/05 11:05:45;;;;;;;0.88;0.47;;;;;;;26.30;36.43;100302.81;4463023;32;33574;-76
2023/09/05 11:08:22;;;;;;;1.80;0.80;;;;;;;26.21;35.93;100303.44;4462040;32;34859;-78
2023/09/05 11:10:55;;;;;;;0.75;0.50;;;;;;;26.47;36.22;100296.31;4466927;32;34392;-77
2023/09/05 11:13:24;;;;;;;0.73;0.60;;;;;;;26.97;36.23;100292.75;4461968;32;33762;-77
2023/09/05 11:15:59;;;;;;;1.77;0.80;;;;;;;26.24;36.53;100295.25;4461764;32;34081;-77
2023/09/05 11:18:27;;;;;;;0.70;0.40;;;;;;;26.21;37.05;100296.31;4461813;32;33675;-77
2023/09/05 11:20:58;;;;;;;1.67;0.90;;;;;;;26.74;34.92;100285.56;4461703;32;33747;-77
2023/09/05 11:23:29;;;;;;;1.42;1.02;;;;;;;26.63;35.54;100289.00;4466850;32;33915;-78
2023/09/05 11:26:00;;;;;;;1.62;0.88;;;;;;;26.78;35.46;100290.56;4461762;32;33638;-77
2023/09/05 11:28:29;;;;;;;1.92;0.77;;;;;;;26.11;36.36;100300.56;4461837;32;33026;-77
2023/09/05 11:31:03;;;;;;;1.27;0.70;;;;;;;26.04;36.42;100301.94;4461854;32;33936;-78
2023/09/05 11:33:34;;;;;;;3.30;0.65;;;;;;;26.59;35.26;100299.00;4470806;32;32853;-78
2023/09/05 11:36:05;;;;;;;0.70;0.60;;;;;;;26.64;34.94;100276.53;4477322;32;33723;-77
2023/09/05 11:38:47;;;;;;;3.87;0.60;;;;;;;26.54;35.89;100279.84;4477214;32;33860;-77
2023/09/05 11:41:16;;;;;;;1.42;0.68;;;;;;;27.36;35.39;100274.00;4477432;32;33641;-76